sensor_id;sensor_type;location;lat;lon;timestamp;P1;durP1;ratioP1;P2;durP2;ratioP2
24389;SDS011;12510;56.468;-3.004;2023-07-13T00:00:08;11.07;;;10.40;;
24389;SDS011;12510;56.468;-3.004;2023-07-13T00:02:41;7.72;;;7.28;;
24389;SDS011;12510;56.468;-3.004;2023-07-13T00:05:08;5.93;;;5.55;;
24389;SDS011;12510;56.468;-3.004;2023-07-13T00:07:35;9.25;;;8.80;;
24389;SDS011;12510;56.468;-3.004;2023-07-13T00:10:02;8.75;;;8.30;;
24389;SDS011;12510;56.468;-3.004;2023-07-13T00:12:30;8.13;;;7.70;;
24389;SDS011;12510;56.468;-3.004;2023-07-13T00:15:02;12.35;;;11.63;;
24389;SDS011;12510;56.468;-3.004;2023-07-13T00:17:36;12.35;;;11.65;;
24389;SDS011;12510;56.468;-3.004;2023-07-13T00:20:04;27.05;;;25.55;;
24389;SDS011;12510;56.468;-3.004;2023-07-13T00:22:32;18.45;;;17.33;;
24389;SDS011;12510;56.468;-3.004;2023-07-13T00:24:59;12.48;;;11.77;;
24389;SDS011;12510;56.468;-3.004;2023-07-13T00:27:25;10.13;;;9.57;;
24389;SDS011;12510;56.468;-3.004;2023-07-13T00:29:58;8.68;;;8.25;;
24389;SDS011;12510;56.468;-3.004;2023-07-13T00:32:24;20.42;;;19.15;;
24389;SDS011;12510;56.468;-3.004;2023-07-13T00:34:52;8.18;;;7.75;;
24389;SDS011;12510;56.468;-3.004;2023-07-13T00:37:18;9.57;;;9.13;;
24389;SDS011;12510;56.468;-3.004;2023-07-13T00:39:45;8.43;;;7.97;;
24389;SDS011;12510;56.468;-3.004;2023-07-13T00:42:11;9.32;;;8.75;;
24389;SDS011;12510;56.468;-3.004;2023-07-13T00:44:38;7.60;;;7.18;;
24389;SDS011;12510;56.468;-3.004;2023-07-13T00:47:05;7.25;;;6.93;;
24389;SDS011;12510;56.468;-3.004;2023-07-13T00:49:32;10.82;;;10.25;;
24389;SDS011;12510;56.468;-3.004;2023-07-13T00:52:05;14.77;;;14.00;;
24389;SDS011;12510;56.468;-3.004;2023-07-13T00:54:34;6.95;;;6.60;;
24389;SDS011;12510;56.468;-3.004;2023-07-13T00:57:05;7.50;;;7.10;;
24389;SDS011;12510;56.468;-3.004;2023-07-13T00:59:34;8.60;;;8.07;;
24389;SDS011;12510;56.468;-3.004;2023-07-13T01:02:03;8.27;;;7.88;;
24389;SDS011;12510;56.468;-3.004;2023-07-13T01:04:29;5.95;;;5.63;;
24389;SDS011;12510;56.468;-3.004;2023-07-13T01:06:56;7.00;;;6.65;;
24389;SDS011;12510;56.468;-3.004;2023-07-13T01:09:23;6.28;;;5.80;;
24389;SDS011;12510;56.468;-3.004;2023-07-13T01:11:52;5.57;;;5.30;;
24389;SDS011;12510;56.468;-3.004;2023-07-13T01:14:18;5.63;;;5.32;;
24389;SDS011;12510;56.468;-3.004;2023-07-13T01:16:45;7.30;;;6.90;;
24389;SDS011;12510;56.468;-3.004;2023-07-13T01:21:42;4.30;;;4.07;;
24389;SDS011;12510;56.468;-3.004;2023-07-13T01:24:09;5.38;;;5.00;;
24389;SDS011;12510;56.468;-3.004;2023-07-13T01:26:35;8.50;;;7.93;;
24389;SDS011;12510;56.468;-3.004;2023-07-13T01:29:02;8.30;;;7.68;;
24389;SDS011;12510;56.468;-3.004;2023-07-13T01:31:29;4.50;;;4.30;;
24389;SDS011;12510;56.468;-3.004;2023-07-13T01:33:55;6.88;;;6.53;;
24389;SDS011;12510;56.468;-3.004;2023-07-13T01:36:23;4.07;;;3.88;;
24389;SDS011;12510;56.468;-3.004;2023-07-13T01:38:50;5.22;;;4.85;;
24389;SDS011;12510;56.468;-3.004;2023-07-13T01:41:16;4.50;;;4.25;;
24389;SDS011;12510;56.468;-3.004;2023-07-13T01:43:43;6.13;;;5.82;;
24389;SDS011;12510;56.468;-3.004;2023-07-13T01:46:09;6.10;;;5.15;;
24389;SDS011;12510;56.468;-3.004;2023-07-13T01:48:36;4.97;;;4.75;;
24389;SDS011;12510;56.468;-3.004;2023-07-13T01:51:02;5.50;;;5.10;;
24389;SDS011;12510;56.468;-3.004;2023-07-13T01:53:29;7.40;;;7.03;;
24389;SDS011;12510;56.468;-3.004;2023-07-13T01:55:55;6.40;;;5.97;;
24389;SDS011;12510;56.468;-3.004;2023-07-13T01:58:21;5.32;;;5.07;;
24389;SDS011;12510;56.468;-3.004;2023-07-13T02:00:48;8.93;;;8.23;;
24389;SDS011;12510;56.468;-3.004;2023-07-13T02:03:15;5.00;;;4.70;;
24389;SDS011;12510;56.468;-3.004;2023-07-13T02:05:44;10.70;;;10.05;;
24389;SDS011;12510;56.468;-3.004;2023-07-13T02:08:11;9.15;;;8.57;;
24389;SDS011;12510;56.468;-3.004;2023-07-13T02:10:37;6.03;;;5.70;;
24389;SDS011;12510;56.468;-3.004;2023-07-13T02:13:05;8.60;;;8.15;;
24389;SDS011;12510;56.468;-3.004;2023-07-13T02:15:32;5.35;;;5.05;;
24389;SDS011;12510;56.468;-3.004;2023-07-13T02:17:59;7.22;;;6.78;;
24389;SDS011;12510;56.468;-3.004;2023-07-13T02:20:26;4.82;;;4.53;;
24389;SDS011;12510;56.468;-3.004;2023-07-13T02:22:52;6.60;;;6.05;;
24389;SDS011;12510;56.468;-3.004;2023-07-13T02:25:20;5.35;;;5.03;;
24389;SDS011;12510;56.468;-3.004;2023-07-13T02:27:48;7.13;;;6.63;;
24389;SDS011;12510;56.468;-3.004;2023-07-13T02:30:17;3.85;;;3.63;;
24389;SDS011;12510;56.468;-3.004;2023-07-13T02:32:43;9.20;;;8.68;;
24389;SDS011;12510;56.468;-3.004;2023-07-13T02:35:10;4.63;;;4.35;;
24389;SDS011;12510;56.468;-3.004;2023-07-13T02:37:37;4.93;;;4.63;;
24389;SDS011;12510;56.468;-3.004;2023-07-13T02:40:04;3.55;;;3.25;;
24389;SDS011;12510;56.468;-3.004;2023-07-13T02:42:35;6.07;;;5.57;;
24389;SDS011;12510;56.468;-3.004;2023-07-13T02:45:02;3.75;;;3.55;;
24389;SDS011;12510;56.468;-3.004;2023-07-13T02:47:28;4.25;;;4.00;;
24389;SDS011;12510;56.468;-3.004;2023-07-13T02:49:57;4.23;;;3.93;;
24389;SDS011;12510;56.468;-3.004;2023-07-13T02:52:24;5.07;;;4.80;;
24389;SDS011;12510;56.468;-3.004;2023-07-13T02:54:51;3.83;;;3.63;;
24389;SDS011;12510;56.468;-3.004;2023-07-13T02:57:17;4.18;;;3.88;;
24389;SDS011;12510;56.468;-3.004;2023-07-13T02:59:44;4.40;;;4.03;;
24389;SDS011;12510;56.468;-3.004;2023-07-13T03:02:10;6.78;;;6.43;;
24389;SDS011;12510;56.468;-3.004;2023-07-13T03:04:37;4.15;;;3.95;;
24389;SDS011;12510;56.468;-3.004;2023-07-13T03:07:04;4.60;;;4.30;;
24389;SDS011;12510;56.468;-3.004;2023-07-13T03:09:35;8.05;;;7.55;;
24389;SDS011;12510;56.468;-3.004;2023-07-13T03:12:04;3.83;;;3.60;;
24389;SDS011;12510;56.468;-3.004;2023-07-13T03:14:32;3.40;;;3.20;;
24389;SDS011;12510;56.468;-3.004;2023-07-13T03:17:00;4.22;;;3.95;;
24389;SDS011;12510;56.468;-3.004;2023-07-13T03:21:56;2.38;;;1.98;;
24389;SDS011;12510;56.468;-3.004;2023-07-13T03:24:23;3.50;;;3.20;;
24389;SDS011;12510;56.468;-3.004;2023-07-13T03:26:52;3.40;;;3.20;;
24389;SDS011;12510;56.468;-3.004;2023-07-13T03:29:18;4.05;;;3.67;;
24389;SDS011;12510;56.468;-3.004;2023-07-13T03:31:45;3.45;;;3.25;;
24389;SDS011;12510;56.468;-3.004;2023-07-13T03:34:12;3.10;;;2.63;;
24389;SDS011;12510;56.468;-3.004;2023-07-13T03:36:38;2.95;;;2.72;;
24389;SDS011;12510;56.468;-3.004;2023-07-13T03:39:09;3.13;;;2.92;;
24389;SDS011;12510;56.468;-3.004;2023-07-13T03:41:43;3.08;;;2.95;;
24389;SDS011;12510;56.468;-3.004;2023-07-13T03:44:11;2.85;;;2.75;;
24389;SDS011;12510;56.468;-3.004;2023-07-13T03:46:38;6.93;;;3.83;;
24389;SDS011;12510;56.468;-3.004;2023-07-13T03:49:04;3.47;;;3.25;;
24389;SDS011;12510;56.468;-3.004;2023-07-13T03:51:32;2.92;;;2.75;;
24389;SDS011;12510;56.468;-3.004;2023-07-13T03:54:00;3.88;;;3.60;;
24389;SDS011;12510;56.468;-3.004;2023-07-13T03:56:28;3.08;;;2.83;;
24389;SDS011;12510;56.468;-3.004;2023-07-13T03:58:57;2.55;;;2.45;;
24389;SDS011;12510;56.468;-3.004;2023-07-13T04:01:24;4.45;;;4.15;;
24389;SDS011;12510;56.468;-3.004;2023-07-13T04:03:53;2.58;;;2.38;;
24389;SDS011;12510;56.468;-3.004;2023-07-13T04:06:23;3.00;;;2.75;;
24389;SDS011;12510;56.468;-3.004;2023-07-13T04:08:56;2.75;;;2.65;;
24389;SDS011;12510;56.468;-3.004;2023-07-13T04:11:25;2.40;;;2.20;;
24389;SDS011;12510;56.468;-3.004;2023-07-13T04:13:54;2.55;;;2.45;;
24389;SDS011;12510;56.468;-3.004;2023-07-13T04:16:21;2.95;;;2.75;;
24389;SDS011;12510;56.468;-3.004;2023-07-13T04:18:48;4.18;;;3.45;;
24389;SDS011;12510;56.468;-3.004;2023-07-13T04:21:15;2.47;;;2.33;;
24389;SDS011;12510;56.468;-3.004;2023-07-13T04:23:42;6.57;;;6.20;;
24389;SDS011;12510;56.468;-3.004;2023-07-13T04:26:09;3.65;;;3.42;;
24389;SDS011;12510;56.468;-3.004;2023-07-13T04:28:35;3.40;;;3.20;;
24389;SDS011;12510;56.468;-3.004;2023-07-13T04:31:02;3.13;;;2.65;;
24389;SDS011;12510;56.468;-3.004;2023-07-13T04:33:29;13.30;;;12.35;;
24389;SDS011;12510;56.468;-3.004;2023-07-13T04:35:56;4.53;;;3.97;;
24389;SDS011;12510;56.468;-3.004;2023-07-13T04:38:24;3.85;;;3.55;;
24389;SDS011;12510;56.468;-3.004;2023-07-13T04:40:55;4.65;;;4.45;;
24389;SDS011;12510;56.468;-3.004;2023-07-13T04:43:23;3.90;;;3.60;;
24389;SDS011;12510;56.468;-3.004;2023-07-13T04:45:50;6.80;;;6.38;;
24389;SDS011;12510;56.468;-3.004;2023-07-13T04:48:18;2.50;;;2.35;;
24389;SDS011;12510;56.468;-3.004;2023-07-13T04:50:45;4.13;;;3.15;;
24389;SDS011;12510;56.468;-3.004;2023-07-13T04:53:12;5.15;;;4.85;;
24389;SDS011;12510;56.468;-3.004;2023-07-13T04:55:39;4.95;;;4.57;;
24389;SDS011;12510;56.468;-3.004;2023-07-13T04:58:06;4.03;;;3.83;;
24389;SDS011;12510;56.468;-3.004;2023-07-13T05:00:33;5.38;;;4.78;;
24389;SDS011;12510;56.468;-3.004;2023-07-13T05:02:59;7.15;;;6.60;;
24389;SDS011;12510;56.468;-3.004;2023-07-13T05:05:26;5.50;;;5.05;;
24389;SDS011;12510;56.468;-3.004;2023-07-13T05:07:53;8.00;;;7.30;;
24389;SDS011;12510;56.468;-3.004;2023-07-13T05:10:20;6.00;;;5.57;;
24389;SDS011;12510;56.468;-3.004;2023-07-13T05:12:46;3.22;;;2.72;;
24389;SDS011;12510;56.468;-3.004;2023-07-13T05:15:13;15.82;;;14.82;;
24389;SDS011;12510;56.468;-3.004;2023-07-13T05:17:40;7.15;;;6.68;;
24389;SDS011;12510;56.468;-3.004;2023-07-13T05:20:07;9.15;;;8.65;;
24389;SDS011;12510;56.468;-3.004;2023-07-13T05:22:34;5.43;;;5.10;;
24389;SDS011;12510;56.468;-3.004;2023-07-13T05:25:02;7.32;;;6.72;;
24389;SDS011;12510;56.468;-3.004;2023-07-13T05:27:31;4.95;;;4.65;;
24389;SDS011;12510;56.468;-3.004;2023-07-13T05:29:57;4.50;;;4.30;;
24389;SDS011;12510;56.468;-3.004;2023-07-13T05:32:23;2.35;;;2.28;;
24389;SDS011;12510;56.468;-3.004;2023-07-13T05:34:50;4.88;;;4.57;;
24389;SDS011;12510;56.468;-3.004;2023-07-13T05:37:16;6.50;;;5.97;;
24389;SDS011;12510;56.468;-3.004;2023-07-13T05:39:43;7.57;;;6.90;;
24389;SDS011;12510;56.468;-3.004;2023-07-13T05:42:09;15.55;;;14.38;;
24389;SDS011;12510;56.468;-3.004;2023-07-13T05:44:36;3.78;;;3.58;;
24389;SDS011;12510;56.468;-3.004;2023-07-13T05:47:02;9.15;;;8.68;;
24389;SDS011;12510;56.468;-3.004;2023-07-13T05:49:29;6.07;;;5.47;;
24389;SDS011;12510;56.468;-3.004;2023-07-13T05:51:56;3.72;;;3.53;;
24389;SDS011;12510;56.468;-3.004;2023-07-13T05:54:23;3.67;;;3.38;;
24389;SDS011;12510;56.468;-3.004;2023-07-13T05:56:49;8.70;;;8.18;;
24389;SDS011;12510;56.468;-3.004;2023-07-13T05:59:17;14.65;;;13.57;;
24389;SDS011;12510;56.468;-3.004;2023-07-13T06:01:44;8.05;;;7.53;;
24389;SDS011;12510;56.468;-3.004;2023-07-13T06:04:10;51.92;;;45.70;;
24389;SDS011;12510;56.468;-3.004;2023-07-13T06:06:36;8.05;;;7.35;;
24389;SDS011;12510;56.468;-3.004;2023-07-13T06:09:03;19.50;;;18.20;;
24389;SDS011;12510;56.468;-3.004;2023-07-13T06:11:29;15.23;;;13.88;;
24389;SDS011;12510;56.468;-3.004;2023-07-13T06:13:56;38.50;;;35.80;;
24389;SDS011;12510;56.468;-3.004;2023-07-13T06:16:22;15.95;;;14.73;;
24389;SDS011;12510;56.468;-3.004;2023-07-13T06:18:49;14.15;;;13.20;;
24389;SDS011;12510;56.468;-3.004;2023-07-13T06:21:16;26.50;;;24.67;;
24389;SDS011;12510;56.468;-3.004;2023-07-13T06:23:45;12.20;;;11.15;;
24389;SDS011;12510;56.468;-3.004;2023-07-13T06:26:16;11.85;;;11.23;;
24389;SDS011;12510;56.468;-3.004;2023-07-13T06:28:44;28.45;;;26.40;;
24389;SDS011;12510;56.468;-3.004;2023-07-13T06:31:11;32.08;;;29.63;;
24389;SDS011;12510;56.468;-3.004;2023-07-13T06:33:39;32.55;;;30.48;;
24389;SDS011;12510;56.468;-3.004;2023-07-13T06:36:06;33.03;;;30.92;;
24389;SDS011;12510;56.468;-3.004;2023-07-13T06:38:33;44.10;;;41.13;;
24389;SDS011;12510;56.468;-3.004;2023-07-13T06:41:00;78.38;;;72.10;;
24389;SDS011;12510;56.468;-3.004;2023-07-13T06:43:27;139.98;;;128.20;;
24389;SDS011;12510;56.468;-3.004;2023-07-13T06:45:54;72.63;;;66.95;;
24389;SDS011;12510;56.468;-3.004;2023-07-13T06:48:22;114.10;;;105.93;;
24389;SDS011;12510;56.468;-3.004;2023-07-13T06:50:49;124.13;;;114.68;;
24389;SDS011;12510;56.468;-3.004;2023-07-13T06:53:17;192.65;;;175.15;;
24389;SDS011;12510;56.468;-3.004;2023-07-13T06:55:45;158.93;;;144.20;;
24389;SDS011;12510;56.468;-3.004;2023-07-13T06:58:12;206.48;;;190.65;;
24389;SDS011;12510;56.468;-3.004;2023-07-13T07:00:39;45.75;;;42.08;;
24389;SDS011;12510;56.468;-3.004;2023-07-13T07:03:06;37.38;;;34.67;;
24389;SDS011;12510;56.468;-3.004;2023-07-13T07:05:33;64.63;;;59.00;;
24389;SDS011;12510;56.468;-3.004;2023-07-13T07:07:59;13.43;;;12.23;;
24389;SDS011;12510;56.468;-3.004;2023-07-13T07:10:26;21.83;;;20.25;;
24389;SDS011;12510;56.468;-3.004;2023-07-13T07:12:55;32.47;;;30.15;;
24389;SDS011;12510;56.468;-3.004;2023-07-13T07:15:21;28.70;;;26.42;;
24389;SDS011;12510;56.468;-3.004;2023-07-13T07:17:48;18.38;;;17.02;;
24389;SDS011;12510;56.468;-3.004;2023-07-13T07:20:14;31.05;;;28.88;;
24389;SDS011;12510;56.468;-3.004;2023-07-13T07:22:40;18.58;;;17.40;;
24389;SDS011;12510;56.468;-3.004;2023-07-13T07:25:07;16.13;;;14.68;;
24389;SDS011;12510;56.468;-3.004;2023-07-13T07:27:34;18.92;;;17.52;;
24389;SDS011;12510;56.468;-3.004;2023-07-13T07:30:00;28.23;;;25.92;;
24389;SDS011;12510;56.468;-3.004;2023-07-13T07:32:28;11.75;;;11.02;;
24389;SDS011;12510;56.468;-3.004;2023-07-13T07:34:57;16.33;;;15.13;;
24389;SDS011;12510;56.468;-3.004;2023-07-13T07:37:24;19.95;;;18.60;;
24389;SDS011;12510;56.468;-3.004;2023-07-13T07:39:50;20.08;;;18.60;;
24389;SDS011;12510;56.468;-3.004;2023-07-13T07:42:17;20.98;;;19.17;;
24389;SDS011;12510;56.468;-3.004;2023-07-13T07:44:43;17.10;;;15.98;;
24389;SDS011;12510;56.468;-3.004;2023-07-13T07:47:10;18.42;;;17.25;;
24389;SDS011;12510;56.468;-3.004;2023-07-13T07:49:37;11.82;;;11.13;;
24389;SDS011;12510;56.468;-3.004;2023-07-13T07:52:04;21.10;;;19.38;;
24389;SDS011;12510;56.468;-3.004;2023-07-13T07:54:31;19.70;;;17.92;;
24389;SDS011;12510;56.468;-3.004;2023-07-13T07:56:57;12.35;;;11.55;;
24389;SDS011;12510;56.468;-3.004;2023-07-13T07:59:24;29.08;;;26.15;;
24389;SDS011;12510;56.468;-3.004;2023-07-13T08:01:50;16.13;;;14.88;;
24389;SDS011;12510;56.468;-3.004;2023-07-13T08:04:17;34.38;;;32.08;;
24389;SDS011;12510;56.468;-3.004;2023-07-13T08:06:43;18.35;;;17.17;;
24389;SDS011;12510;56.468;-3.004;2023-07-13T08:09:10;27.42;;;25.50;;
24389;SDS011;12510;56.468;-3.004;2023-07-13T08:11:37;22.70;;;21.20;;
24389;SDS011;12510;56.468;-3.004;2023-07-13T08:14:03;13.75;;;12.60;;
24389;SDS011;12510;56.468;-3.004;2023-07-13T08:16:30;21.75;;;20.40;;
24389;SDS011;12510;56.468;-3.004;2023-07-13T08:18:58;20.95;;;19.52;;
24389;SDS011;12510;56.468;-3.004;2023-07-13T08:21:25;23.63;;;22.02;;
24389;SDS011;12510;56.468;-3.004;2023-07-13T08:23:52;26.67;;;24.85;;
24389;SDS011;12510;56.468;-3.004;2023-07-13T08:26:18;20.65;;;19.42;;
24389;SDS011;12510;56.468;-3.004;2023-07-13T08:28:45;22.38;;;20.73;;
24389;SDS011;12510;56.468;-3.004;2023-07-13T08:31:11;8.40;;;7.55;;
24389;SDS011;12510;56.468;-3.004;2023-07-13T08:33:38;25.98;;;24.33;;
24389;SDS011;12510;56.468;-3.004;2023-07-13T08:36:06;17.15;;;15.88;;
24389;SDS011;12510;56.468;-3.004;2023-07-13T08:38:33;29.50;;;27.70;;
24389;SDS011;12510;56.468;-3.004;2023-07-13T08:41:01;26.85;;;25.25;;
24389;SDS011;12510;56.468;-3.004;2023-07-13T08:43:36;28.83;;;27.02;;
24389;SDS011;12510;56.468;-3.004;2023-07-13T08:46:21;32.40;;;30.42;;
24389;SDS011;12510;56.468;-3.004;2023-07-13T08:49:05;32.40;;;30.48;;
24389;SDS011;12510;56.468;-3.004;2023-07-13T08:51:41;37.00;;;34.70;;
24389;SDS011;12510;56.468;-3.004;2023-07-13T08:57:13;50.58;;;47.22;;
24389;SDS011;12510;56.468;-3.004;2023-07-13T08:59:41;49.65;;;46.33;;
24389;SDS011;12510;56.468;-3.004;2023-07-13T09:02:17;44.45;;;41.70;;
24389;SDS011;12510;56.468;-3.004;2023-07-13T09:16:03;38.15;;;35.78;;
24389;SDS011;12510;56.468;-3.004;2023-07-13T09:18:35;47.70;;;44.78;;
24389;SDS011;12510;56.468;-3.004;2023-07-13T09:21:17;43.70;;;40.83;;
24389;SDS011;12510;56.468;-3.004;2023-07-13T09:23:48;36.97;;;34.67;;
24389;SDS011;12510;56.468;-3.004;2023-07-13T09:26:20;44.47;;;41.60;;
24389;SDS011;12510;56.468;-3.004;2023-07-13T09:28:52;44.60;;;41.85;;
24389;SDS011;12510;56.468;-3.004;2023-07-13T09:31:28;33.50;;;31.45;;
24389;SDS011;12510;56.468;-3.004;2023-07-13T09:34:00;39.33;;;37.00;;
24389;SDS011;12510;56.468;-3.004;2023-07-13T09:36:30;36.03;;;33.97;;
24389;SDS011;12510;56.468;-3.004;2023-07-13T09:39:05;39.97;;;37.58;;
24389;SDS011;12510;56.468;-3.004;2023-07-13T09:44:29;42.08;;;39.50;;
24389;SDS011;12510;56.468;-3.004;2023-07-13T09:46:57;54.60;;;50.90;;
24389;SDS011;12510;56.468;-3.004;2023-07-13T09:49:25;46.63;;;43.55;;
24389;SDS011;12510;56.468;-3.004;2023-07-13T09:52:00;43.95;;;40.80;;
24389;SDS011;12510;56.468;-3.004;2023-07-13T09:54:29;47.05;;;44.03;;
24389;SDS011;12510;56.468;-3.004;2023-07-13T09:56:59;46.08;;;43.20;;
24389;SDS011;12510;56.468;-3.004;2023-07-13T09:59:32;35.83;;;33.65;;
24389;SDS011;12510;56.468;-3.004;2023-07-13T10:02:00;37.25;;;35.08;;
24389;SDS011;12510;56.468;-3.004;2023-07-13T10:04:30;29.67;;;28.02;;
24389;SDS011;12510;56.468;-3.004;2023-07-13T10:07:05;20.20;;;18.98;;
24389;SDS011;12510;56.468;-3.004;2023-07-13T10:09:33;16.77;;;15.75;;
24389;SDS011;12510;56.468;-3.004;2023-07-13T10:12:00;21.65;;;20.30;;
24389;SDS011;12510;56.468;-3.004;2023-07-13T10:14:27;27.23;;;25.67;;
24389;SDS011;12510;56.468;-3.004;2023-07-13T10:16:58;22.13;;;20.83;;
24389;SDS011;12510;56.468;-3.004;2023-07-13T10:19:29;21.20;;;20.05;;
24389;SDS011;12510;56.468;-3.004;2023-07-13T10:21:59;31.73;;;28.77;;
24389;SDS011;12510;56.468;-3.004;2023-07-13T10:24:29;36.60;;;34.42;;
24389;SDS011;12510;56.468;-3.004;2023-07-13T10:29:42;47.08;;;44.08;;
24389;SDS011;12510;56.468;-3.004;2023-07-13T10:32:12;40.10;;;37.50;;
24389;SDS011;12510;56.468;-3.004;2023-07-13T10:34:41;35.08;;;32.80;;
24389;SDS011;12510;56.468;-3.004;2023-07-13T10:40:12;53.17;;;49.50;;
24389;SDS011;12510;56.468;-3.004;2023-07-13T10:42:44;42.97;;;40.30;;
24389;SDS011;12510;56.468;-3.004;2023-07-13T10:45:14;42.83;;;40.05;;
24389;SDS011;12510;56.468;-3.004;2023-07-13T10:47:44;47.15;;;44.25;;
24389;SDS011;12510;56.468;-3.004;2023-07-13T10:50:21;35.10;;;33.00;;
24389;SDS011;12510;56.468;-3.004;2023-07-13T10:52:52;23.52;;;22.15;;
24389;SDS011;12510;56.468;-3.004;2023-07-13T10:55:34;36.20;;;33.60;;
24389;SDS011;12510;56.468;-3.004;2023-07-13T10:58:02;34.22;;;32.13;;
24389;SDS011;12510;56.468;-3.004;2023-07-13T11:00:56;23.58;;;22.23;;
24389;SDS011;12510;56.468;-3.004;2023-07-13T11:03:29;31.88;;;29.90;;
24389;SDS011;12510;56.468;-3.004;2023-07-13T11:06:04;37.13;;;34.78;;
24389;SDS011;12510;56.468;-3.004;2023-07-13T11:08:38;21.77;;;20.52;;
24389;SDS011;12510;56.468;-3.004;2023-07-13T11:11:36;24.08;;;22.67;;
24389;SDS011;12510;56.468;-3.004;2023-07-13T11:14:05;40.03;;;37.20;;
24389;SDS011;12510;56.468;-3.004;2023-07-13T11:16:51;30.58;;;28.77;;
24389;SDS011;12510;56.468;-3.004;2023-07-13T11:24:49;28.40;;;26.70;;
24389;SDS011;12510;56.468;-3.004;2023-07-13T11:27:27;29.50;;;27.60;;
24389;SDS011;12510;56.468;-3.004;2023-07-13T11:30:07;29.08;;;27.25;;
24389;SDS011;12510;56.468;-3.004;2023-07-13T11:32:46;22.15;;;20.88;;
24389;SDS011;12510;56.468;-3.004;2023-07-13T11:35:19;20.17;;;19.02;;
24389;SDS011;12510;56.468;-3.004;2023-07-13T11:37:50;24.50;;;23.15;;
24389;SDS011;12510;56.468;-3.004;2023-07-13T11:40:17;12.65;;;11.95;;
24389;SDS011;12510;56.468;-3.004;2023-07-13T11:42:44;14.00;;;13.27;;
24389;SDS011;12510;56.468;-3.004;2023-07-13T11:45:22;17.55;;;16.55;;
24389;SDS011;12510;56.468;-3.004;2023-07-13T11:47:49;15.85;;;15.00;;
24389;SDS011;12510;56.468;-3.004;2023-07-13T11:50:18;16.58;;;15.63;;
24389;SDS011;12510;56.468;-3.004;2023-07-13T11:52:46;14.02;;;13.18;;
24389;SDS011;12510;56.468;-3.004;2023-07-13T11:55:17;17.50;;;16.45;;
24389;SDS011;12510;56.468;-3.004;2023-07-13T11:57:49;22.45;;;20.92;;
24389;SDS011;12510;56.468;-3.004;2023-07-13T12:00:28;26.00;;;24.27;;
24389;SDS011;12510;56.468;-3.004;2023-07-13T12:02:59;18.20;;;17.00;;
24389;SDS011;12510;56.468;-3.004;2023-07-13T12:05:28;17.42;;;16.52;;
24389;SDS011;12510;56.468;-3.004;2023-07-13T12:07:56;14.52;;;13.68;;
24389;SDS011;12510;56.468;-3.004;2023-07-13T12:10:26;11.18;;;10.55;;
24389;SDS011;12510;56.468;-3.004;2023-07-13T12:13:04;17.17;;;16.25;;
24389;SDS011;12510;56.468;-3.004;2023-07-13T12:15:39;19.80;;;18.60;;
24389;SDS011;12510;56.468;-3.004;2023-07-13T12:18:13;15.80;;;14.98;;
24389;SDS011;12510;56.468;-3.004;2023-07-13T12:20:45;13.07;;;12.15;;
24389;SDS011;12510;56.468;-3.004;2023-07-13T12:23:23;14.52;;;13.75;;
24389;SDS011;12510;56.468;-3.004;2023-07-13T12:25:53;16.77;;;15.88;;
24389;SDS011;12510;56.468;-3.004;2023-07-13T12:28:21;25.30;;;23.90;;
24389;SDS011;12510;56.468;-3.004;2023-07-13T12:31:00;7.18;;;6.78;;
24389;SDS011;12510;56.468;-3.004;2023-07-13T12:33:28;10.07;;;9.45;;
24389;SDS011;12510;56.468;-3.004;2023-07-13T12:35:57;17.63;;;16.45;;
24389;SDS011;12510;56.468;-3.004;2023-07-13T12:38:28;10.52;;;9.68;;
24389;SDS011;12510;56.468;-3.004;2023-07-13T12:40:57;15.35;;;14.27;;
24389;SDS011;12510;56.468;-3.004;2023-07-13T12:43:25;16.33;;;15.35;;
24389;SDS011;12510;56.468;-3.004;2023-07-13T12:46:01;9.95;;;9.25;;
24389;SDS011;12510;56.468;-3.004;2023-07-13T12:48:41;17.17;;;16.08;;
24389;SDS011;12510;56.468;-3.004;2023-07-13T12:51:10;14.93;;;14.15;;
24389;SDS011;12510;56.468;-3.004;2023-07-13T12:53:40;13.40;;;12.70;;
24389;SDS011;12510;56.468;-3.004;2023-07-13T12:56:21;17.20;;;16.30;;
24389;SDS011;12510;56.468;-3.004;2023-07-13T12:58:49;9.07;;;8.57;;
24389;SDS011;12510;56.468;-3.004;2023-07-13T13:01:21;13.13;;;12.30;;
24389;SDS011;12510;56.468;-3.004;2023-07-13T13:03:50;16.33;;;15.40;;
24389;SDS011;12510;56.468;-3.004;2023-07-13T13:08:45;13.55;;;12.70;;
24389;SDS011;12510;56.468;-3.004;2023-07-13T13:11:17;5.85;;;4.47;;
24389;SDS011;12510;56.468;-3.004;2023-07-13T13:13:45;5.43;;;5.05;;
24389;SDS011;12510;56.468;-3.004;2023-07-13T13:16:22;16.17;;;15.27;;
24389;SDS011;12510;56.468;-3.004;2023-07-13T13:18:52;16.25;;;15.05;;
24389;SDS011;12510;56.468;-3.004;2023-07-13T13:21:23;9.93;;;9.10;;
24389;SDS011;12510;56.468;-3.004;2023-07-13T13:23:50;24.17;;;22.77;;
24389;SDS011;12510;56.468;-3.004;2023-07-13T13:26:18;22.80;;;21.42;;
24389;SDS011;12510;56.468;-3.004;2023-07-13T13:28:45;7.97;;;7.47;;
24389;SDS011;12510;56.468;-3.004;2023-07-13T13:31:13;27.58;;;25.90;;
24389;SDS011;12510;56.468;-3.004;2023-07-13T13:33:41;10.20;;;9.60;;
24389;SDS011;12510;56.468;-3.004;2023-07-13T13:36:18;15.48;;;14.45;;
24389;SDS011;12510;56.468;-3.004;2023-07-13T13:38:47;35.78;;;33.22;;
24389;SDS011;12510;56.468;-3.004;2023-07-13T13:41:14;23.00;;;21.42;;
24389;SDS011;12510;56.468;-3.004;2023-07-13T13:43:41;24.33;;;22.60;;
24389;SDS011;12510;56.468;-3.004;2023-07-13T13:46:17;20.77;;;19.23;;
24389;SDS011;12510;56.468;-3.004;2023-07-13T13:48:45;19.92;;;18.30;;
24389;SDS011;12510;56.468;-3.004;2023-07-13T13:51:18;24.48;;;22.67;;
24389;SDS011;12510;56.468;-3.004;2023-07-13T13:53:47;15.95;;;14.77;;
24389;SDS011;12510;56.468;-3.004;2023-07-13T13:56:14;17.55;;;16.02;;
24389;SDS011;12510;56.468;-3.004;2023-07-13T13:58:41;30.30;;;27.95;;
24389;SDS011;12510;56.468;-3.004;2023-07-13T14:01:20;27.55;;;25.27;;
24389;SDS011;12510;56.468;-3.004;2023-07-13T14:03:49;13.80;;;12.80;;
24389;SDS011;12510;56.468;-3.004;2023-07-13T14:06:17;41.38;;;38.47;;
24389;SDS011;12510;56.468;-3.004;2023-07-13T14:08:44;12.38;;;11.57;;
24389;SDS011;12510;56.468;-3.004;2023-07-13T14:11:13;25.08;;;23.05;;
24389;SDS011;12510;56.468;-3.004;2023-07-13T14:13:43;18.40;;;17.05;;
24389;SDS011;12510;56.468;-3.004;2023-07-13T14:16:15;18.77;;;17.55;;
24389;SDS011;12510;56.468;-3.004;2023-07-13T14:18:44;6.97;;;6.30;;
24389;SDS011;12510;56.468;-3.004;2023-07-13T14:21:14;13.38;;;12.52;;
24389;SDS011;12510;56.468;-3.004;2023-07-13T14:23:43;8.70;;;8.18;;
24389;SDS011;12510;56.468;-3.004;2023-07-13T14:26:11;3.30;;;3.10;;
24389;SDS011;12510;56.468;-3.004;2023-07-13T14:28:43;10.35;;;9.77;;
24389;SDS011;12510;56.468;-3.004;2023-07-13T14:31:12;3.35;;;2.83;;
24389;SDS011;12510;56.468;-3.004;2023-07-13T14:33:40;7.20;;;6.50;;
24389;SDS011;12510;56.468;-3.004;2023-07-13T14:38:52;9.82;;;9.32;;
24389;SDS011;12510;56.468;-3.004;2023-07-13T14:41:28;15.18;;;14.40;;
24389;SDS011;12510;56.468;-3.004;2023-07-13T14:43:54;11.85;;;11.15;;
24389;SDS011;12510;56.468;-3.004;2023-07-13T14:49:03;4.07;;;3.88;;
24389;SDS011;12510;56.468;-3.004;2023-07-13T14:51:32;6.32;;;5.80;;
24389;SDS011;12510;56.468;-3.004;2023-07-13T14:54:03;3.30;;;3.10;;
24389;SDS011;12510;56.468;-3.004;2023-07-13T14:56:32;9.15;;;8.65;;
24389;SDS011;12510;56.468;-3.004;2023-07-13T14:58:58;6.00;;;5.65;;
24389;SDS011;12510;56.468;-3.004;2023-07-13T15:01:24;12.02;;;11.15;;
24389;SDS011;12510;56.468;-3.004;2023-07-13T15:03:52;17.67;;;16.38;;
24389;SDS011;12510;56.468;-3.004;2023-07-13T15:06:19;6.22;;;5.70;;
24389;SDS011;12510;56.468;-3.004;2023-07-13T15:08:46;6.93;;;6.35;;